sensor_id;sensor_type;location;lat;lon;timestamp;pressure;altitude;pressure_sealevel;temperature;humidity
6090;BME280;3073;42.660;23.316;2023-04-06T00:00:49;94228.34;;;9.57;45.43
6090;BME280;3073;42.660;23.316;2023-04-06T00:03:16;94234.81;;;10.56;43.33
6090;BME280;3073;42.660;23.316;2023-04-06T00:05:43;94220.31;;;10.35;43.19
6090;BME280;3073;42.660;23.316;2023-04-06T00:08:11;94216.56;;;10.69;43.52
6090;BME280;3073;42.660;23.316;2023-04-06T00:10:38;94221.03;;;10.89;43.09
6090;BME280;3073;42.660;23.316;2023-04-06T00:13:06;94206.63;;;11.10;42.63
6090;BME280;3073;42.660;23.316;2023-04-06T00:15:33;94203.53;;;11.08;43.03
6090;BME280;3073;42.660;23.316;2023-04-06T00:18:00;94200.84;;;10.88;43.35
6090;BME280;3073;42.660;23.316;2023-04-06T00:20:27;94207.44;;;11.62;41.96
6090;BME280;3073;42.660;23.316;2023-04-06T00:22:55;94202.25;;;11.00;42.76
6090;BME280;3073;42.660;23.316;2023-04-06T00:25:23;94197.75;;;11.69;41.99
6090;BME280;3073;42.660;23.316;2023-04-06T00:27:50;94194.94;;;11.14;42.72
6090;BME280;3073;42.660;23.316;2023-04-06T00:30:17;94193.16;;;9.75;44.47
6090;BME280;3073;42.660;23.316;2023-04-06T00:32:44;94193.44;;;10.54;43.79
6090;BME280;3073;42.660;23.316;2023-04-06T00:35:11;94196.03;;;11.80;42.05
6090;BME280;3073;42.660;23.316;2023-04-06T00:37:38;94190.00;;;11.02;42.73
6090;BME280;3073;42.660;23.316;2023-04-06T00:40:06;94193.75;;;10.95;43.04
6090;BME280;3073;42.660;23.316;2023-04-06T00:42:35;94184.00;;;9.53;45.81
6090;BME280;3073;42.660;23.316;2023-04-06T00:45:03;94190.09;;;10.49;44.17
6090;BME280;3073;42.660;23.316;2023-04-06T00:47:30;94184.94;;;9.68;44.96
6090;BME280;3073;42.660;23.316;2023-04-06T00:49:57;94172.97;;;9.09;46.07
6090;BME280;3073;42.660;23.316;2023-04-06T00:52:24;94174.56;;;9.53;44.86
6090;BME280;3073;42.660;23.316;2023-04-06T00:54:51;94173.56;;;11.30;42.61
6090;BME280;3073;42.660;23.316;2023-04-06T00:57:18;94182.66;;;9.94;44.37
6090;BME280;3073;42.660;23.316;2023-04-06T00:59:47;94187.56;;;10.80;43.50
6090;BME280;3073;42.660;23.316;2023-04-06T01:02:14;94190.41;;;11.26;43.47
6090;BME280;3073;42.660;23.316;2023-04-06T01:04:41;94179.97;;;10.05;44.87
6090;BME280;3073;42.660;23.316;2023-04-06T01:07:08;94184.59;;;10.94;43.94
6090;BME280;3073;42.660;23.316;2023-04-06T01:09:34;94186.38;;;10.08;44.91
6090;BME280;3073;42.660;23.316;2023-04-06T01:12:02;94184.44;;;11.15;43.10
6090;BME280;3073;42.660;23.316;2023-04-06T01:14:29;94181.06;;;11.52;42.64
6090;BME280;3073;42.660;23.316;2023-04-06T01:16:59;94173.53;;;10.83;43.57
6090;BME280;3073;42.660;23.316;2023-04-06T01:19:27;94175.09;;;10.84;43.98
6090;BME280;3073;42.660;23.316;2023-04-06T01:21:54;94170.78;;;11.36;43.00
6090;BME280;3073;42.660;23.316;2023-04-06T01:24:22;94162.25;;;11.21;43.29
6090;BME280;3073;42.660;23.316;2023-04-06T01:26:49;94174.25;;;11.15;43.47
6090;BME280;3073;42.660;23.316;2023-04-06T01:29:16;94166.09;;;10.81;43.87
6090;BME280;3073;42.660;23.316;2023-04-06T01:31:43;94168.41;;;11.25;43.42
6090;BME280;3073;42.660;23.316;2023-04-06T01:34:10;94157.00;;;12.15;42.15
6090;BME280;3073;42.660;23.316;2023-04-06T01:36:37;94164.09;;;11.25;42.67
6090;BME280;3073;42.660;23.316;2023-04-06T01:39:04;94154.97;;;12.32;41.87
6090;BME280;3073;42.660;23.316;2023-04-06T01:41:32;94163.19;;;11.05;43.71
6090;BME280;3073;42.660;23.316;2023-04-06T01:43:59;94167.78;;;10.66;44.07
6090;BME280;3073;42.660;23.316;2023-04-06T01:46:26;94159.41;;;10.70;43.85
6090;BME280;3073;42.660;23.316;2023-04-06T01:48:53;94155.50;;;11.47;43.04
6090;BME280;3073;42.660;23.316;2023-04-06T01:51:20;94153.56;;;10.75;44.29
6090;BME280;3073;42.660;23.316;2023-04-06T01:53:49;94152.44;;;11.50;42.74
6090;BME280;3073;42.660;23.316;2023-04-06T01:56:18;94153.38;;;10.50;44.45
6090;BME280;3073;42.660;23.316;2023-04-06T01:58:46;94148.59;;;10.26;44.60
6090;BME280;3073;42.660;23.316;2023-04-06T02:01:14;94146.53;;;11.39;44.05
6090;BME280;3073;42.660;23.316;2023-04-06T02:03:41;94153.84;;;11.20;43.30
6090;BME280;3073;42.660;23.316;2023-04-06T02:06:08;94154.63;;;11.26;43.35
6090;BME280;3073;42.660;23.316;2023-04-06T02:08:34;94151.84;;;10.80;44.08
6090;BME280;3073;42.660;23.316;2023-04-06T02:11:01;94148.19;;;10.71;43.65
6090;BME280;3073;42.660;23.316;2023-04-06T02:13:28;94150.09;;;10.54;44.11
6090;BME280;3073;42.660;23.316;2023-04-06T02:15:57;94141.84;;;11.21;42.90
6090;BME280;3073;42.660;23.316;2023-04-06T02:18:24;94149.84;;;10.93;43.62
6090;BME280;3073;42.660;23.316;2023-04-06T02:20:51;94149.56;;;10.89;43.35
6090;BME280;3073;42.660;23.316;2023-04-06T02:23:17;94144.22;;;12.15;42.25
6090;BME280;3073;42.660;23.316;2023-04-06T02:25:45;94148.81;;;12.03;42.31
6090;BME280;3073;42.660;23.316;2023-04-06T02:28:21;94143.97;;;11.39;43.14
6090;BME280;3073;42.660;23.316;2023-04-06T02:30:48;94150.56;;;10.51;44.32
6090;BME280;3073;42.660;23.316;2023-04-06T02:33:16;94144.47;;;10.52;44.21
6090;BME280;3073;42.660;23.316;2023-04-06T02:35:44;94146.88;;;11.11;43.40
6090;BME280;3073;42.660;23.316;2023-04-06T02:38:11;94150.34;;;10.90;43.89
6090;BME280;3073;42.660;23.316;2023-04-06T02:40:38;94152.59;;;11.28;43.75
6090;BME280;3073;42.660;23.316;2023-04-06T02:43:05;94151.69;;;11.49;43.04
6090;BME280;3073;42.660;23.316;2023-04-06T02:45:32;94147.53;;;11.38;43.28
6090;BME280;3073;42.660;23.316;2023-04-06T02:47:59;94140.03;;;11.16;43.70
6090;BME280;3073;42.660;23.316;2023-04-06T02:50:27;94139.97;;;10.32;44.84
6090;BME280;3073;42.660;23.316;2023-04-06T02:52:54;94142.06;;;10.72;44.18
6090;BME280;3073;42.660;23.316;2023-04-06T02:55:21;94134.81;;;11.43;43.24
6090;BME280;3073;42.660;23.316;2023-04-06T02:57:48;94140.66;;;10.55;44.65
6090;BME280;3073;42.660;23.316;2023-04-06T03:00:18;94139.31;;;11.31;43.87
6090;BME280;3073;42.660;23.316;2023-04-06T03:02:53;94144.84;;;10.66;44.16
6090;BME280;3073;42.660;23.316;2023-04-06T03:05:21;94144.53;;;11.46;42.43
6090;BME280;3073;42.660;23.316;2023-04-06T03:07:53;94137.81;;;11.35;43.32
6090;BME280;3073;42.660;23.316;2023-04-06T03:10:25;94141.53;;;10.07;45.21
6090;BME280;3073;42.660;23.316;2023-04-06T03:12:52;94139.38;;;11.36;43.41
6090;BME280;3073;42.660;23.316;2023-04-06T03:15:19;94142.16;;;10.19;44.87
6090;BME280;3073;42.660;23.316;2023-04-06T03:17:46;94140.47;;;10.08;45.76
6090;BME280;3073;42.660;23.316;2023-04-06T03:20:13;94146.06;;;11.47;43.32
6090;BME280;3073;42.660;23.316;2023-04-06T03:22:40;94141.56;;;10.12;44.66
6090;BME280;3073;42.660;23.316;2023-04-06T03:25:08;94141.31;;;10.40;45.19
6090;BME280;3073;42.660;23.316;2023-04-06T03:27:36;94140.66;;;10.23;44.85
6090;BME280;3073;42.660;23.316;2023-04-06T03:30:04;94137.44;;;11.11;44.23
6090;BME280;3073;42.660;23.316;2023-04-06T03:32:31;94132.19;;;9.91;45.83
6090;BME280;3073;42.660;23.316;2023-04-06T03:34:58;94138.97;;;11.07;43.97
6090;BME280;3073;42.660;23.316;2023-04-06T03:37:25;94136.22;;;10.40;44.58
6090;BME280;3073;42.660;23.316;2023-04-06T03:39:52;94139.13;;;10.54;45.18
6090;BME280;3073;42.660;23.316;2023-04-06T03:42:20;94144.94;;;9.91;45.48
6090;BME280;3073;42.660;23.316;2023-04-06T03:44:47;94146.16;;;11.15;44.12
6090;BME280;3073;42.660;23.316;2023-04-06T03:47:17;94134.47;;;10.46;44.60
6090;BME280;3073;42.660;23.316;2023-04-06T03:49:44;94147.75;;;9.94;45.30
6090;BME280;3073;42.660;23.316;2023-04-06T03:52:10;94136.03;;;10.47;45.05
6090;BME280;3073;42.660;23.316;2023-04-06T03:54:37;94144.06;;;10.65;44.28
6090;BME280;3073;42.660;23.316;2023-04-06T03:57:04;94139.47;;;11.66;43.05
6090;BME280;3073;42.660;23.316;2023-04-06T03:59:33;94145.53;;;8.39;48.12
6090;BME280;3073;42.660;23.316;2023-04-06T04:02:00;94139.25;;;10.10;45.33
6090;BME280;3073;42.660;23.316;2023-04-06T04:04:27;94141.16;;;10.20;44.85
6090;BME280;3073;42.660;23.316;2023-04-06T04:06:54;94136.09;;;10.57;44.29
6090;BME280;3073;42.660;23.316;2023-04-06T04:09:21;94136.72;;;9.83;46.09
6090;BME280;3073;42.660;23.316;2023-04-06T04:11:48;94137.00;;;10.41;44.67
6090;BME280;3073;42.660;23.316;2023-04-06T04:14:18;94140.72;;;11.59;42.99
6090;BME280;3073;42.660;23.316;2023-04-06T04:16:47;94142.69;;;12.09;42.14
6090;BME280;3073;42.660;23.316;2023-04-06T04:19:13;94145.72;;;10.18;44.33
6090;BME280;3073;42.660;23.316;2023-04-06T04:21:44;94139.44;;;10.62;43.66
6090;BME280;3073;42.660;23.316;2023-04-06T04:24:11;94133.09;;;10.33;44.75
6090;BME280;3073;42.660;23.316;2023-04-06T04:26:39;94139.75;;;11.13;43.52
6090;BME280;3073;42.660;23.316;2023-04-06T04:29:11;94145.56;;;11.50;43.32
6090;BME280;3073;42.660;23.316;2023-04-06T04:31:37;94144.59;;;11.09;44.24
6090;BME280;3073;42.660;23.316;2023-04-06T04:34:06;94138.31;;;9.95;45.40
6090;BME280;3073;42.660;23.316;2023-04-06T04:36:33;94151.28;;;10.42;45.06
6090;BME280;3073;42.660;23.316;2023-04-06T04:39:00;94153.25;;;10.66;44.02
6090;BME280;3073;42.660;23.316;2023-04-06T04:41:27;94141.09;;;11.82;42.65
6090;BME280;3073;42.660;23.316;2023-04-06T04:43:54;94146.66;;;11.12;43.61
6090;BME280;3073;42.660;23.316;2023-04-06T04:46:21;94144.75;;;10.56;44.27
6090;BME280;3073;42.660;23.316;2023-04-06T04:48:48;94148.47;;;10.75;44.37
6090;BME280;3073;42.660;23.316;2023-04-06T04:51:16;94139.09;;;11.32;43.88
6090;BME280;3073;42.660;23.316;2023-04-06T04:53:45;94143.13;;;10.76;44.48
6090;BME280;3073;42.660;23.316;2023-04-06T04:56:11;94136.31;;;10.87;43.87
6090;BME280;3073;42.660;23.316;2023-04-06T04:58:38;94143.47;;;10.53;44.66
6090;BME280;3073;42.660;23.316;2023-04-06T05:01:05;94140.91;;;12.34;42.19
6090;BME280;3073;42.660;23.316;2023-04-06T05:03:32;94146.56;;;10.97;43.51
6090;BME280;3073;42.660;23.316;2023-04-06T05:06:01;94144.25;;;12.30;42.20
6090;BME280;3073;42.660;23.316;2023-04-06T05:08:29;94140.00;;;10.69;44.53
6090;BME280;3073;42.660;23.316;2023-04-06T05:10:56;94135.94;;;10.37;44.69
6090;BME280;3073;42.660;23.316;2023-04-06T05:13:23;94149.34;;;12.20;42.78
6090;BME280;3073;42.660;23.316;2023-04-06T05:15:50;94134.53;;;12.52;41.67
6090;BME280;3073;42.660;23.316;2023-04-06T05:18:17;94142.66;;;10.84;44.25
6090;BME280;3073;42.660;23.316;2023-04-06T05:20:44;94134.53;;;10.51;45.46
6090;BME280;3073;42.660;23.316;2023-04-06T05:23:11;94141.75;;;11.01;44.23
6090;BME280;3073;42.660;23.316;2023-04-06T05:25:40;94143.25;;;11.49;43.75
6090;BME280;3073;42.660;23.316;2023-04-06T05:28:07;94135.28;;;12.68;42.22
6090;BME280;3073;42.660;23.316;2023-04-06T05:30:34;94143.13;;;13.32;40.43
6090;BME280;3073;42.660;23.316;2023-04-06T05:33:01;94137.34;;;12.66;41.22
6090;BME280;3073;42.660;23.316;2023-04-06T05:35:28;94142.94;;;12.12;42.22
6090;BME280;3073;42.660;23.316;2023-04-06T05:37:56;94142.69;;;13.10;41.32
6090;BME280;3073;42.660;23.316;2023-04-06T05:40:23;94140.13;;;13.00;41.02
6090;BME280;3073;42.660;23.316;2023-04-06T05:42:52;94140.75;;;13.56;40.83
6090;BME280;3073;42.660;23.316;2023-04-06T05:45:19;94135.53;;;12.21;42.47
6090;BME280;3073;42.660;23.316;2023-04-06T05:47:46;94138.09;;;12.81;41.46
6090;BME280;3073;42.660;23.316;2023-04-06T05:50:14;94133.72;;;13.12;40.96
6090;BME280;3073;42.660;23.316;2023-04-06T05:52:41;94133.25;;;12.65;41.91
6090;BME280;3073;42.660;23.316;2023-04-06T05:55:12;94130.38;;;12.91;41.94
6090;BME280;3073;42.660;23.316;2023-04-06T05:57:38;94128.44;;;13.58;40.78
6090;BME280;3073;42.660;23.316;2023-04-06T06:00:08;94127.84;;;12.91;41.54
6090;BME280;3073;42.660;23.316;2023-04-06T06:02:36;94130.69;;;12.19;42.74
6090;BME280;3073;42.660;23.316;2023-04-06T06:05:03;94132.31;;;11.68;43.57
6090;BME280;3073;42.660;23.316;2023-04-06T06:07:30;94123.28;;;12.63;42.27
6090;BME280;3073;42.660;23.316;2023-04-06T06:09:57;94126.31;;;12.25;42.66
6090;BME280;3073;42.660;23.316;2023-04-06T06:12:24;94122.69;;;13.17;41.52
6090;BME280;3073;42.660;23.316;2023-04-06T06:14:51;94121.63;;;13.28;41.71
6090;BME280;3073;42.660;23.316;2023-04-06T06:17:20;94131.97;;;12.72;42.32
6090;BME280;3073;42.660;23.316;2023-04-06T06:19:48;94119.09;;;13.08;41.59
6090;BME280;3073;42.660;23.316;2023-04-06T06:22:15;94132.38;;;11.73;43.50
6090;BME280;3073;42.660;23.316;2023-04-06T06:24:43;94125.81;;;12.23;42.97
6090;BME280;3073;42.660;23.316;2023-04-06T06:27:11;94128.63;;;12.82;42.08
6090;BME280;3073;42.660;23.316;2023-04-06T06:29:38;94127.88;;;12.26;43.12
6090;BME280;3073;42.660;23.316;2023-04-06T06:32:06;94115.09;;;12.56;42.47
6090;BME280;3073;42.660;23.316;2023-04-06T06:34:35;94112.44;;;13.17;42.42
6090;BME280;3073;42.660;23.316;2023-04-06T06:37:02;94125.03;;;12.88;41.85
6090;BME280;3073;42.660;23.316;2023-04-06T06:39:29;94118.38;;;12.97;42.33
6090;BME280;3073;42.660;23.316;2023-04-06T06:41:56;94120.63;;;13.83;41.14
6090;BME280;3073;42.660;23.316;2023-04-06T06:44:25;94123.94;;;13.88;41.01
6090;BME280;3073;42.660;23.316;2023-04-06T06:46:52;94124.41;;;14.73;39.46
6090;BME280;3073;42.660;23.316;2023-04-06T06:49:20;94125.72;;;14.71;40.16
6090;BME280;3073;42.660;23.316;2023-04-06T06:51:48;94127.53;;;16.08;38.27
6090;BME280;3073;42.660;23.316;2023-04-06T06:54:15;94130.91;;;16.59;37.21
6090;BME280;3073;42.660;23.316;2023-04-06T06:56:42;94135.00;;;16.92;36.50
6090;BME280;3073;42.660;23.316;2023-04-06T06:59:08;94125.50;;;16.05;36.98
6090;BME280;3073;42.660;23.316;2023-04-06T07:01:36;94126.06;;;16.58;37.02
6090;BME280;3073;42.660;23.316;2023-04-06T07:04:03;94134.34;;;16.36;36.40
6090;BME280;3073;42.660;23.316;2023-04-06T07:06:30;94121.69;;;13.13;40.58
6090;BME280;3073;42.660;23.316;2023-04-06T07:08:58;94131.25;;;15.78;37.44
6090;BME280;3073;42.660;23.316;2023-04-06T07:11:25;94123.88;;;16.46;37.18
6090;BME280;3073;42.660;23.316;2023-04-06T07:13:52;94122.06;;;15.53;38.72
6090;BME280;3073;42.660;23.316;2023-04-06T07:16:19;94124.00;;;15.14;38.42
6090;BME280;3073;42.660;23.316;2023-04-06T07:18:46;94116.84;;;15.34;38.28
6090;BME280;3073;42.660;23.316;2023-04-06T07:21:12;94113.97;;;15.41;38.62
6090;BME280;3073;42.660;23.316;2023-04-06T07:23:39;94108.13;;;17.39;36.16
6090;BME280;3073;42.660;23.316;2023-04-06T07:26:08;94109.53;;;17.05;36.06
6090;BME280;3073;42.660;23.316;2023-04-06T07:28:35;94118.72;;;16.46;36.50
6090;BME280;3073;42.660;23.316;2023-04-06T07:31:02;94113.97;;;16.21;37.76
6090;BME280;3073;42.660;23.316;2023-04-06T07:33:29;94123.97;;;15.85;37.75
6090;BME280;3073;42.660;23.316;2023-04-06T07:35:56;94116.53;;;16.72;36.48
6090;BME280;3073;42.660;23.316;2023-04-06T07:38:24;94126.00;;;16.07;36.64
6090;BME280;3073;42.660;23.316;2023-04-06T07:40:51;94107.16;;;16.62;36.13
6090;BME280;3073;42.660;23.316;2023-04-06T07:43:19;94113.00;;;17.41;35.27
6090;BME280;3073;42.660;23.316;2023-04-06T07:45:46;94110.47;;;16.12;37.20
6090;BME280;3073;42.660;23.316;2023-04-06T07:48:13;94114.97;;;16.89;36.62
6090;BME280;3073;42.660;23.316;2023-04-06T07:50:40;94104.38;;;17.05;35.79
6090;BME280;3073;42.660;23.316;2023-04-06T07:53:08;94110.50;;;17.77;35.56
6090;BME280;3073;42.660;23.316;2023-04-06T07:55:35;94113.19;;;18.88;34.38
6090;BME280;3073;42.660;23.316;2023-04-06T07:58:02;94109.38;;;17.56;36.05
6090;BME280;3073;42.660;23.316;2023-04-06T08:00:31;94116.69;;;18.25;35.75
6090;BME280;3073;42.660;23.316;2023-04-06T08:02:58;94114.91;;;17.49;36.39
6090;BME280;3073;42.660;23.316;2023-04-06T08:05:25;94104.19;;;18.19;35.36
6090;BME280;3073;42.660;23.316;2023-04-06T08:07:52;94105.75;;;19.82;33.78
6090;BME280;3073;42.660;23.316;2023-04-06T08:10:19;94102.50;;;17.37;35.67
6090;BME280;3073;42.660;23.316;2023-04-06T08:12:46;94108.59;;;18.40;35.15
6090;BME280;3073;42.660;23.316;2023-04-06T08:15:13;94101.50;;;17.88;35.18
6090;BME280;3073;42.660;23.316;2023-04-06T08:17:42;94118.72;;;17.11;36.32
6090;BME280;3073;42.660;23.316;2023-04-06T08:20:09;94108.25;;;14.97;39.33
6090;BME280;3073;42.660;23.316;2023-04-06T08:22:36;94113.94;;;14.31;40.69
6090;BME280;3073;42.660;23.316;2023-04-06T08:25:04;94111.72;;;17.93;36.26
6090;BME280;3073;42.660;23.316;2023-04-06T08:27:30;94114.66;;;16.77;36.62
6090;BME280;3073;42.660;23.316;2023-04-06T08:29:57;94119.88;;;17.45;36.52
6090;BME280;3073;42.660;23.316;2023-04-06T08:32:27;94118.53;;;17.75;35.84
6090;BME280;3073;42.660;23.316;2023-04-06T08:34:55;94119.78;;;14.99;38.30
6090;BME280;3073;42.660;23.316;2023-04-06T08:37:22;94130.88;;;16.27;36.25
6090;BME280;3073;42.660;23.316;2023-04-06T08:39:49;94117.22;;;17.37;35.19
6090;BME280;3073;42.660;23.316;2023-04-06T08:42:20;94124.50;;;19.40;32.92
6090;BME280;3073;42.660;23.316;2023-04-06T08:44:48;94118.91;;;16.68;35.74
6090;BME280;3073;42.660;23.316;2023-04-06T08:47:15;94127.13;;;16.52;35.41
6090;BME280;3073;42.660;23.316;2023-04-06T08:49:44;94123.72;;;16.88;35.10
6090;BME280;3073;42.660;23.316;2023-04-06T08:52:13;94114.72;;;17.59;33.90
6090;BME280;3073;42.660;23.316;2023-04-06T08:54:42;94118.81;;;17.87;33.86
6090;BME280;3073;42.660;23.316;2023-04-06T08:57:09;94120.72;;;17.00;35.20
6090;BME280;3073;42.660;23.316;2023-04-06T08:59:36;94117.16;;;18.27;33.47
6090;BME280;3073;42.660;23.316;2023-04-06T09:02:04;94116.72;;;19.31;31.97
6090;BME280;3073;42.660;23.316;2023-04-06T09:04:33;94108.59;;;15.98;35.91
6090;BME280;3073;42.660;23.316;2023-04-06T09:07:00;94116.03;;;18.56;34.55
6090;BME280;3073;42.660;23.316;2023-04-06T09:09:29;94113.78;;;18.40;33.60
6090;BME280;3073;42.660;23.316;2023-04-06T09:11:56;94112.47;;;19.83;32.72
6090;BME280;3073;42.660;23.316;2023-04-06T09:14:35;94113.53;;;20.77;31.06
6090;BME280;3073;42.660;23.316;2023-04-06T09:17:05;94111.69;;;21.32;31.39
6090;BME280;3073;42.660;23.316;2023-04-06T09:19:32;94115.06;;;20.09;31.28
6090;BME280;3073;42.660;23.316;2023-04-06T09:22:03;94114.94;;;20.23;31.69
6090;BME280;3073;42.660;23.316;2023-04-06T09:24:42;94111.72;;;20.00;32.41
6090;BME280;3073;42.660;23.316;2023-04-06T09:27:09;94119.59;;;18.99;33.13
6090;BME280;3073;42.660;23.316;2023-04-06T09:29:36;94112.88;;;18.23;33.28
6090;BME280;3073;42.660;23.316;2023-04-06T09:32:04;94112.50;;;17.25;35.47
6090;BME280;3073;42.660;23.316;2023-04-06T09:34:31;94112.19;;;17.81;35.00
6090;BME280;3073;42.660;23.316;2023-04-06T09:36:58;94112.28;;;18.92;32.87
6090;BME280;3073;42.660;23.316;2023-04-06T09:39:25;94112.78;;;18.72;33.14
6090;BME280;3073;42.660;23.316;2023-04-06T09:41:54;94105.75;;;17.43;33.99
6090;BME280;3073;42.660;23.316;2023-04-06T09:44:21;94107.44;;;18.24;33.97
6090;BME280;3073;42.660;23.316;2023-04-06T09:46:50;94107.66;;;16.45;35.38
6090;BME280;3073;42.660;23.316;2023-04-06T09:49:19;94109.56;;;18.09;33.70
6090;BME280;3073;42.660;23.316;2023-04-06T09:51:48;94113.03;;;19.72;32.18
6090;BME280;3073;42.660;23.316;2023-04-06T09:54:18;94105.09;;;19.68;32.34
6090;BME280;3073;42.660;23.316;2023-04-06T09:56:46;94125.97;;;19.24;31.75
6090;BME280;3073;42.660;23.316;2023-04-06T09:59:20;94107.75;;;17.32;33.37
6090;BME280;3073;42.660;23.316;2023-04-06T10:01:51;94108.31;;;17.16;34.00
6090;BME280;3073;42.660;23.316;2023-04-06T10:04:28;94105.88;;;18.01;34.11
6090;BME280;3073;42.660;23.316;2023-04-06T10:06:59;94108.59;;;16.36;35.33
6090;BME280;3073;42.660;23.316;2023-04-06T10:09:29;94111.66;;;19.66;31.95
6090;BME280;3073;42.660;23.316;2023-04-06T10:12:03;94105.84;;;18.37;31.88
6090;BME280;3073;42.660;23.316;2023-04-06T10:14:33;94104.50;;;18.62;31.65
6090;BME280;3073;42.660;23.316;2023-04-06T10:17:03;94100.22;;;17.63;33.15
6090;BME280;3073;42.660;23.316;2023-04-06T10:19:42;94099.38;;;16.67;33.98
6090;BME280;3073;42.660;23.316;2023-04-06T10:22:12;94093.78;;;17.88;32.94
6090;BME280;3073;42.660;23.316;2023-04-06T10:24:45;94096.63;;;20.45;30.41
6090;BME280;3073;42.660;23.316;2023-04-06T10:27:12;94090.69;;;21.75;29.43
6090;BME280;3073;42.660;23.316;2023-04-06T10:29:45;94093.91;;;22.43;28.85
6090;BME280;3073;42.660;23.316;2023-04-06T10:32:14;94085.63;;;19.62;31.27
6090;BME280;3073;42.660;23.316;2023-04-06T10:34:41;94092.66;;;19.87;30.89
6090;BME280;3073;42.660;23.316;2023-04-06T10:37:12;94076.78;;;20.75;30.08
6090;BME280;3073;42.660;23.316;2023-04-06T10:39:46;94085.06;;;21.15;30.08
6090;BME280;3073;42.660;23.316;2023-04-06T10:42:13;94072.53;;;18.80;31.57
6090;BME280;3073;42.660;23.316;2023-04-06T10:44:45;94083.66;;;18.89;31.88
6090;BME280;3073;42.660;23.316;2023-04-06T10:47:16;94084.84;;;19.44;31.92
6090;BME280;3073;42.660;23.316;2023-04-06T10:49:44;94082.47;;;20.08;30.62
6090;BME280;3073;42.660;23.316;2023-04-06T10:52:11;94075.41;;;18.78;32.29
6090;BME280;3073;42.660;23.316;2023-04-06T10:54:41;94084.19;;;17.88;33.01
6090;BME280;3073;42.660;23.316;2023-04-06T10:57:09;94080.84;;;16.65;34.43
6090;BME280;3073;42.660;23.316;2023-04-06T10:59:36;94079.28;;;17.51;33.37
6090;BME280;3073;42.660;23.316;2023-04-06T11:02:05;94082.94;;;20.36;32.15
6090;BME280;3073;42.660;23.316;2023-04-06T11:04:32;94082.03;;;19.97;31.91
6090;BME280;3073;42.660;23.316;2023-04-06T11:06:59;94072.00;;;20.94;30.68
6090;BME280;3073;42.660;23.316;2023-04-06T11:09:27;94063.94;;;21.83;29.56
6090;BME280;3073;42.660;23.316;2023-04-06T11:11:55;94065.25;;;22.31;28.81
6090;BME280;3073;42.660;23.316;2023-04-06T11:14:22;94062.00;;;23.36;27.96
6090;BME280;3073;42.660;23.316;2023-04-06T11:16:50;94061.50;;;20.82;29.74
6090;BME280;3073;42.660;23.316;2023-04-06T11:19:19;94067.56;;;21.32;29.33
6090;BME280;3073;42.660;23.316;2023-04-06T11:21:46;94056.97;;;21.46;28.71
6090;BME280;3073;42.660;23.316;2023-04-06T11:24:15;94066.22;;;21.85;28.89
6090;BME280;3073;42.660;23.316;2023-04-06T11:26:44;94060.22;;;20.33;30.24
6090;BME280;3073;42.660;23.316;2023-04-06T11:29:15;94058.50;;;21.18;29.83
6090;BME280;3073;42.660;23.316;2023-04-06T11:31:45;94048.66;;;21.61;29.29
6090;BME280;3073;42.660;23.316;2023-04-06T11:34:13;94052.31;;;20.38;30.76
6090;BME280;3073;42.660;23.316;2023-04-06T11:36:42;94058.22;;;19.78;31.40
6090;BME280;3073;42.660;23.316;2023-04-06T11:39:09;94050.19;;;18.09;33.40
6090;BME280;3073;42.660;23.316;2023-04-06T11:41:36;94049.34;;;18.22;32.47
6090;BME280;3073;42.660;23.316;2023-04-06T11:44:05;94040.69;;;19.01;32.30
6090;BME280;3073;42.660;23.316;2023-04-06T11:46:33;94039.59;;;19.42;32.16
6090;BME280;3073;42.660;23.316;2023-04-06T11:49:00;94038.22;;;18.13;32.78
6090;BME280;3073;42.660;23.316;2023-04-06T11:51:28;94029.47;;;18.22;32.71
6090;BME280;3073;42.660;23.316;2023-04-06T11:53:57;94037.03;;;18.63;33.04
6090;BME280;3073;42.660;23.316;2023-04-06T11:56:25;94042.66;;;17.49;33.27
6090;BME280;3073;42.660;23.316;2023-04-06T11:58:54;94034.13;;;17.76;33.95
6090;BME280;3073;42.660;23.316;2023-04-06T12:01:21;94042.59;;;17.90;33.22
6090;BME280;3073;42.660;23.316;2023-04-06T12:03:49;94031.88;;;18.19;33.06
6090;BME280;3073;42.660;23.316;2023-04-06T12:06:16;94032.25;;;17.54;33.69
6090;BME280;3073;42.660;23.316;2023-04-06T12:08:44;94025.25;;;15.62;35.57
6090;BME280;3073;42.660;23.316;2023-04-06T12:11:12;94042.38;;;16.23;34.67
6090;BME280;3073;42.660;23.316;2023-04-06T12:13:40;94031.72;;;16.89;34.70
6090;BME280;3073;42.660;23.316;2023-04-06T12:16:07;94035.16;;;17.12;34.31
6090;BME280;3073;42.660;23.316;2023-04-06T12:18:34;94032.25;;;17.54;33.53
6090;BME280;3073;42.660;23.316;2023-04-06T12:21:01;94036.66;;;17.54;33.41
6090;BME280;3073;42.660;23.316;2023-04-06T12:23:28;94028.72;;;17.64;34.00
6090;BME280;3073;42.660;23.316;2023-04-06T12:25:55;94023.22;;;16.88;34.47
6090;BME280;3073;42.660;23.316;2023-04-06T12:28:23;94029.78;;;18.21;33.50
6090;BME280;3073;42.660;23.316;2023-04-06T12:30:52;94034.44;;;18.19;33.49
6090;BME280;3073;42.660;23.316;2023-04-06T12:33:20;94029.28;;;18.19;33.32
6090;BME280;3073;42.660;23.316;2023-04-06T12:35:47;94030.69;;;18.02;33.38
6090;BME280;3073;42.660;23.316;2023-04-06T12:38:15;94031.09;;;18.18;32.98
6090;BME280;3073;42.660;23.316;2023-04-06T12:40:42;94028.50;;;18.63;32.68
6090;BME280;3073;42.660;23.316;2023-04-06T12:43:09;94025.94;;;17.96;33.33
6090;BME280;3073;42.660;23.316;2023-04-06T12:45:38;94019.84;;;18.36;33.47
6090;BME280;3073;42.660;23.316;2023-04-06T12:48:05;94015.03;;;16.27;35.03
6090;BME280;3073;42.660;23.316;2023-04-06T12:50:32;94014.72;;;17.78;34.29
6090;BME280;3073;42.660;23.316;2023-04-06T12:52:59;94016.03;;;17.89;33.28
6090;BME280;3073;42.660;23.316;2023-04-06T12:55:35;94009.34;;;18.11;33.44
6090;BME280;3073;42.660;23.316;2023-04-06T12:58:02;94018.41;;;17.50;33.19
6090;BME280;3073;42.660;23.316;2023-04-06T13:00:29;94013.31;;;16.36;34.52
6090;BME280;3073;42.660;23.316;2023-04-06T13:02:58;94012.25;;;17.37;33.46
6090;BME280;3073;42.660;23.316;2023-04-06T13:05:25;94010.13;;;18.64;32.43
6090;BME280;3073;42.660;23.316;2023-04-06T13:07:51;94003.34;;;18.24;32.24
6090;BME280;3073;42.660;23.316;2023-04-06T13:10:18;94005.09;;;17.21;34.07
6090;BME280;3073;42.660;23.316;2023-04-06T13:12:45;94019.28;;;18.70;32.66
6090;BME280;3073;42.660;23.316;2023-04-06T13:15:12;93998.25;;;18.10;33.23